sensor_id;sensor_type;location;lat;lon;timestamp;P1;durP1;ratioP1;P2;durP2;ratioP2
57313;SDS011;53202;50.976;18.216;2023-04-24T07:48:59;12.20;;;6.00;;
57313;SDS011;53202;50.976;18.216;2023-04-24T07:58:46;7.30;;;2.70;;
57313;SDS011;53202;50.976;18.216;2023-04-24T08:08:32;7.40;;;3.60;;
57313;SDS011;53202;50.976;18.216;2023-04-24T08:18:16;5.90;;;3.40;;
57313;SDS011;53202;50.976;18.216;2023-04-24T08:28:02;5.10;;;3.80;;
57313;SDS011;53202;50.976;18.216;2023-04-24T08:37:48;13.60;;;4.30;;
57313;SDS011;53202;50.976;18.216;2023-04-24T08:54:54;2.80;;;1.80;;
57313;SDS011;53202;50.976;18.216;2023-04-24T09:04:38;4.60;;;4.20;;
57313;SDS011;53202;50.976;18.216;2023-04-24T09:14:24;5.70;;;4.80;;
57313;SDS011;53202;50.976;18.216;2023-04-24T09:24:18;3.20;;;2.90;;
57313;SDS011;53202;50.976;18.216;2023-04-24T09:34:08;4.70;;;3.60;;
57313;SDS011;53202;50.976;18.216;2023-04-24T09:51:33;3.00;;;2.70;;
57313;SDS011;53202;50.976;18.216;2023-04-24T10:01:42;3.90;;;3.20;;
57313;SDS011;53202;50.976;18.216;2023-04-24T10:11:46;5.60;;;4.90;;
57313;SDS011;53202;50.976;18.216;2023-04-24T10:21:40;3.80;;;2.80;;
57313;SDS011;53202;50.976;18.216;2023-04-24T10:31:30;16.90;;;2.50;;
57313;SDS011;53202;50.976;18.216;2023-04-24T10:41:18;3.70;;;3.40;;
57313;SDS011;53202;50.976;18.216;2023-04-24T10:51:20;8.80;;;4.10;;
57313;SDS011;53202;50.976;18.216;2023-04-24T11:11:38;7.30;;;3.60;;
57313;SDS011;53202;50.976;18.216;2023-04-24T11:21:41;4.30;;;3.90;;
57313;SDS011;53202;50.976;18.216;2023-04-24T11:34:46;2.60;;;2.40;;
57313;SDS011;53202;50.976;18.216;2023-04-24T11:44:34;20.20;;;2.80;;
57313;SDS011;53202;50.976;18.216;2023-04-24T11:54:21;5.70;;;3.60;;
57313;SDS011;53202;50.976;18.216;2023-04-24T12:04:10;15.10;;;4.70;;
57313;SDS011;53202;50.976;18.216;2023-04-24T12:13:54;4.60;;;4.00;;
57313;SDS011;53202;50.976;18.216;2023-04-24T12:23:43;3.00;;;2.80;;
57313;SDS011;53202;50.976;18.216;2023-04-24T12:33:33;7.00;;;4.30;;
57313;SDS011;53202;50.976;18.216;2023-04-24T12:43:36;4.00;;;2.90;;
57313;SDS011;53202;50.976;18.216;2023-04-24T12:53:21;3.50;;;3.20;;
57313;SDS011;53202;50.976;18.216;2023-04-24T13:03:12;7.60;;;3.00;;
57313;SDS011;53202;50.976;18.216;2023-04-24T13:12:55;2.70;;;2.50;;
57313;SDS011;53202;50.976;18.216;2023-04-24T13:22:39;3.00;;;2.70;;
57313;SDS011;53202;50.976;18.216;2023-04-24T13:32:23;2.70;;;2.50;;
57313;SDS011;53202;50.976;18.216;2023-04-24T13:42:08;7.20;;;3.90;;
57313;SDS011;53202;50.976;18.216;2023-04-24T13:51:52;1.40;;;0.90;;
57313;SDS011;53202;50.976;18.216;2023-04-24T14:01:37;3.30;;;3.00;;
57313;SDS011;53202;50.976;18.216;2023-04-24T14:11:22;8.40;;;6.60;;
57313;SDS011;53202;50.976;18.216;2023-04-24T14:21:05;12.20;;;7.10;;
57313;SDS011;53202;50.976;18.216;2023-04-24T14:30:50;10.40;;;5.00;;
57313;SDS011;53202;50.976;18.216;2023-04-24T14:40:35;5.00;;;4.70;;
57313;SDS011;53202;50.976;18.216;2023-04-24T14:50:19;6.80;;;6.20;;
57313;SDS011;53202;50.976;18.216;2023-04-24T15:07:24;7.50;;;6.00;;
57313;SDS011;53202;50.976;18.216;2023-04-24T15:17:08;11.40;;;8.30;;
57313;SDS011;53202;50.976;18.216;2023-04-24T15:26:51;15.00;;;8.30;;
57313;SDS011;53202;50.976;18.216;2023-04-24T15:36:35;7.10;;;6.40;;
57313;SDS011;53202;50.976;18.216;2023-04-24T15:46:19;9.10;;;8.20;;
57313;SDS011;53202;50.976;18.216;2023-04-24T15:56:02;8.30;;;7.20;;
57313;SDS011;53202;50.976;18.216;2023-04-24T16:05:46;21.90;;;10.30;;
57313;SDS011;53202;50.976;18.216;2023-04-24T16:15:32;18.70;;;15.20;;
57313;SDS011;53202;50.976;18.216;2023-04-24T16:25:18;139.80;;;14.60;;
57313;SDS011;53202;50.976;18.216;2023-04-24T16:35:03;14.50;;;12.70;;
57313;SDS011;53202;50.976;18.216;2023-04-24T16:44:47;27.20;;;18.10;;
57313;SDS011;53202;50.976;18.216;2023-04-24T16:54:33;17.50;;;15.80;;
57313;SDS011;53202;50.976;18.216;2023-04-24T17:04:19;31.10;;;21.40;;
57313;SDS011;53202;50.976;18.216;2023-04-24T17:14:06;35.50;;;21.90;;
57313;SDS011;53202;50.976;18.216;2023-04-24T17:23:51;24.60;;;20.50;;
57313;SDS011;53202;50.976;18.216;2023-04-24T17:33:35;32.00;;;23.20;;
57313;SDS011;53202;50.976;18.216;2023-04-24T17:43:19;23.00;;;19.60;;
57313;SDS011;53202;50.976;18.216;2023-04-24T17:53:05;16.50;;;14.80;;
57313;SDS011;53202;50.976;18.216;2023-04-24T18:02:53;24.30;;;17.30;;
57313;SDS011;53202;50.976;18.216;2023-04-24T18:12:45;15.10;;;13.20;;
57313;SDS011;53202;50.976;18.216;2023-04-24T18:22:29;17.00;;;13.10;;
57313;SDS011;53202;50.976;18.216;2023-04-24T18:32:16;7.80;;;6.50;;
57313;SDS011;53202;50.976;18.216;2023-04-24T18:41:59;4.70;;;3.80;;
57313;SDS011;53202;50.976;18.216;2023-04-24T18:51:43;3.20;;;3.00;;
57313;SDS011;53202;50.976;18.216;2023-04-24T19:01:27;9.00;;;5.10;;
57313;SDS011;53202;50.976;18.216;2023-04-24T19:11:14;5.30;;;3.90;;
57313;SDS011;53202;50.976;18.216;2023-04-24T19:20:58;8.40;;;3.50;;
57313;SDS011;53202;50.976;18.216;2023-04-24T19:30:42;7.50;;;5.20;;
57313;SDS011;53202;50.976;18.216;2023-04-24T19:40:26;1.80;;;0.70;;
57313;SDS011;53202;50.976;18.216;2023-04-24T19:50:11;11.10;;;4.30;;
57313;SDS011;53202;50.976;18.216;2023-04-24T19:59:57;11.80;;;5.00;;
57313;SDS011;53202;50.976;18.216;2023-04-24T20:09:42;9.40;;;7.50;;
57313;SDS011;53202;50.976;18.216;2023-04-24T20:19:25;23.50;;;13.10;;
57313;SDS011;53202;50.976;18.216;2023-04-24T20:29:09;16.90;;;10.60;;
57313;SDS011;53202;50.976;18.216;2023-04-24T20:38:55;20.40;;;10.60;;
57313;SDS011;53202;50.976;18.216;2023-04-24T20:48:42;16.80;;;8.80;;
57313;SDS011;53202;50.976;18.216;2023-04-24T20:58:26;21.90;;;9.20;;
57313;SDS011;53202;50.976;18.216;2023-04-24T21:08:10;23.40;;;11.70;;
57313;SDS011;53202;50.976;18.216;2023-04-24T21:17:55;14.00;;;7.30;;
57313;SDS011;53202;50.976;18.216;2023-04-24T21:27:38;16.00;;;11.70;;
57313;SDS011;53202;50.976;18.216;2023-04-24T21:37:24;13.00;;;10.10;;
57313;SDS011;53202;50.976;18.216;2023-04-24T21:47:08;11.10;;;10.00;;
57313;SDS011;53202;50.976;18.216;2023-04-24T21:56:52;11.50;;;9.70;;
57313;SDS011;53202;50.976;18.216;2023-04-24T22:06:35;31.10;;;10.00;;
57313;SDS011;53202;50.976;18.216;2023-04-24T22:16:21;13.30;;;11.90;;
57313;SDS011;53202;50.976;18.216;2023-04-24T22:26:06;17.80;;;12.50;;
57313;SDS011;53202;50.976;18.216;2023-04-24T22:35:49;46.20;;;14.70;;
57313;SDS011;53202;50.976;18.216;2023-04-24T22:52:52;34.40;;;16.50;;
57313;SDS011;53202;50.976;18.216;2023-04-24T23:02:37;32.90;;;17.60;;
57313;SDS011;53202;50.976;18.216;2023-04-24T23:12:23;26.50;;;14.50;;
57313;SDS011;53202;50.976;18.216;2023-04-24T23:22:06;27.80;;;14.80;;
57313;SDS011;53202;50.976;18.216;2023-04-24T23:31:51;13.40;;;9.20;;
57313;SDS011;53202;50.976;18.216;2023-04-24T23:41:37;20.90;;;17.90;;
57313;SDS011;53202;50.976;18.216;2023-04-24T23:51:21;22.70;;;12.20;;
